Time;durP1;ratioP1;P1;durP2;ratioP2;P2;SDS_P1;SDS_P2;PMS_P1;PMS_P2;Temp;Humidity;BMP_temperature;BMP_pressure;BME280_temperature;BME280_humidity;BME280_pressure;Samples;Min_cycle;Max_cycle;Signal;HPM_P1;HPM_P2
2023/12/02 00:02:22;;;;;;;42.80;26.70;;;1.40;99.90;;;;;;4992641;28;20034;-71
2023/12/02 00:04:48;;;;;;;44.50;27.67;;;1.40;99.90;;;;;;4992686;28;20493;-71
2023/12/02 00:07:14;;;;;;;44.60;27.77;;;1.50;99.90;;;;;;4991628;28;20026;-69
2023/12/02 00:09:39;;;;;;;41.38;25.27;;;1.50;99.90;;;;;;4990946;28;20100;-71
2023/12/02 00:12:05;;;;;;;44.78;26.48;;;1.50;99.90;;;;;;4991867;28;20359;-70
2023/12/02 00:14:31;;;;;;;44.72;26.55;;;1.60;99.90;;;;;;4990318;28;20547;-71
2023/12/02 00:16:56;;;;;;;44.85;25.90;;;1.60;99.90;;;;;;4988258;28;20035;-72
2023/12/02 00:19:22;;;;;;;41.80;24.65;;;1.60;99.90;;;;;;4990773;28;20038;-71
2023/12/02 00:21:48;;;;;;;43.60;25.25;;;1.70;99.90;;;;;;4991896;28;20145;-72
2023/12/02 00:24:14;;;;;;;44.10;24.25;;;1.70;99.90;;;;;;4989940;28;20463;-71
2023/12/02 00:26:40;;;;;;;41.72;24.15;;;1.70;99.90;;;;;;4985060;28;20037;-71
2023/12/02 00:29:05;;;;;;;50.00;31.58;;;1.70;99.90;;;;;;4987149;28;20042;-71
2023/12/02 00:31:31;;;;;;;39.40;22.55;;;1.70;99.90;;;;;;4990122;28;20034;-71
2023/12/02 00:33:57;;;;;;;37.97;22.48;;;1.70;99.90;;;;;;4992506;28;20031;-71
2023/12/02 00:36:23;;;;;;;40.25;22.98;;;1.70;99.90;;;;;;4991229;28;20130;-72
2023/12/02 00:38:48;;;;;;;42.95;25.20;;;1.70;99.90;;;;;;4991026;28;20463;-71
2023/12/02 00:41:14;;;;;;;43.40;24.55;;;1.70;99.90;;;;;;4991575;28;20110;-71
2023/12/02 00:43:40;;;;;;;43.03;25.45;;;1.70;99.90;;;;;;4991155;28;20026;-71
2023/12/02 00:46:06;;;;;;;42.22;24.23;;;1.80;99.90;;;;;;4991480;28;20022;-72
2023/12/02 00:48:31;;;;;;;43.13;25.00;;;1.70;99.90;;;;;;4986647;28;20073;-71
2023/12/02 00:50:57;;;;;;;39.72;23.27;;;1.70;99.90;;;;;;4990004;28;20105;-72
2023/12/02 00:53:23;;;;;;;43.85;23.70;;;1.80;99.90;;;;;;4991563;28;20533;-74
2023/12/02 00:55:50;;;;;;;39.78;22.33;;;1.70;99.90;;;;;;4985918;28;20061;-73
2023/12/02 00:58:15;;;;;;;41.42;22.83;;;1.70;99.90;;;;;;4989690;28;20034;-71
2023/12/02 01:00:41;;;;;;;40.80;24.00;;;1.60;99.90;;;;;;4995541;28;20097;-73
2023/12/02 01:03:07;;;;;;;43.50;24.73;;;1.50;99.90;;;;;;4995617;28;20030;-72
2023/12/02 01:05:34;;;;;;;39.13;22.50;;;1.60;99.90;;;;;;4994540;28;20390;-73
2023/12/02 01:08:00;;;;;;;42.63;23.60;;;1.50;99.90;;;;;;4990009;28;20042;-72
2023/12/02 01:10:25;;;;;;;45.75;25.15;;;1.40;99.90;;;;;;4994287;28;20023;-72
2023/12/02 01:12:51;;;;;;;43.50;24.52;;;1.40;99.90;;;;;;4993580;28;20390;-71
2023/12/02 01:15:16;;;;;;;44.35;24.67;;;1.40;99.90;;;;;;4994749;28;20095;-71
2023/12/02 01:17:42;;;;;;;42.30;24.40;;;1.30;99.90;;;;;;4995104;28;20046;-73
2023/12/02 01:20:09;;;;;;;42.72;23.77;;;1.20;99.90;;;;;;4994881;28;20044;-73
2023/12/02 01:22:35;;;;;;;44.60;23.90;;;1.20;99.90;;;;;;4994093;28;20030;-72
2023/12/02 01:25:00;;;;;;;42.53;23.88;;;1.10;99.90;;;;;;4994630;28;20026;-73
2023/12/02 01:27:26;;;;;;;42.30;23.88;;;1.00;99.90;;;;;;4993570;28;20034;-71
2023/12/02 01:29:51;;;;;;;44.35;24.90;;;1.00;99.90;;;;;;4993149;28;20109;-72
2023/12/02 01:32:18;;;;;;;43.58;24.00;;;1.00;99.90;;;;;;4994389;28;20109;-73
2023/12/02 01:34:43;;;;;;;40.45;22.55;;;0.90;99.90;;;;;;4994675;28;20062;-71
2023/12/02 01:37:10;;;;;;;43.90;23.33;;;0.90;99.90;;;;;;4994586;28;20065;-72
2023/12/02 01:39:35;;;;;;;43.90;24.63;;;0.90;99.90;;;;;;4994532;28;20450;-73
2023/12/02 01:42:01;;;;;;;43.30;24.25;;;1.00;99.90;;;;;;4993255;28;20141;-71
2023/12/02 01:44:27;;;;;;;41.33;23.65;;;1.10;99.90;;;;;;4991481;28;20018;-71
2023/12/02 01:46:53;;;;;;;44.67;25.17;;;1.20;99.90;;;;;;4994114;28;20027;-72
2023/12/02 01:49:19;;;;;;;43.25;24.10;;;1.20;99.90;;;;;;4994165;28;20105;-72
2023/12/02 01:51:44;;;;;;;41.28;23.13;;;1.30;99.90;;;;;;4994380;28;20030;-71
2023/12/02 01:54:10;;;;;;;44.97;23.40;;;1.30;99.90;;;;;;4993758;28;20041;-72
2023/12/02 01:56:36;;;;;;;44.28;24.63;;;1.40;99.90;;;;;;4993058;28;20065;-71
2023/12/02 01:59:02;;;;;;;39.40;22.30;;;1.30;99.90;;;;;;4994251;28;20031;-72
2023/12/02 02:01:27;;;;;;;39.35;22.90;;;1.30;99.90;;;;;;4989912;28;20034;-72
2023/12/02 02:03:53;;;;;;;41.95;24.08;;;1.40;99.90;;;;;;4993430;28;20084;-72
2023/12/02 02:06:18;;;;;;;38.42;22.77;;;1.40;99.90;;;;;;4990751;28;20035;-71
2023/12/02 02:08:44;;;;;;;41.53;23.88;;;1.30;99.90;;;;;;4993514;28;20026;-71
2023/12/02 02:11:09;;;;;;;40.63;22.35;;;1.30;99.90;;;;;;4994195;28;20030;-71
2023/12/02 02:13:35;;;;;;;42.65;23.63;;;1.30;99.90;;;;;;4993378;28;20458;-71
2023/12/02 02:16:01;;;;;;;41.58;23.63;;;1.30;99.90;;;;;;4991486;28;20125;-71
2023/12/02 02:18:28;;;;;;;41.08;23.13;;;1.30;99.90;;;;;;4993720;28;20105;-71
2023/12/02 02:20:54;;;;;;;44.40;24.73;;;1.30;99.90;;;;;;4993735;28;20110;-72
2023/12/02 02:23:22;;;;;;;40.63;23.02;;;1.30;99.90;;;;;;4993242;28;20026;-71
2023/12/02 02:25:50;;;;;;;41.95;23.45;;;1.30;99.90;;;;;;4993492;28;20084;-72
2023/12/02 02:28:22;;;;;;;41.80;23.48;;;1.30;99.90;;;;;;4992111;28;20085;-72
2023/12/02 02:30:48;;;;;;;;;;;1.30;99.90;;;;;;4992117;28;20027;-73
2023/12/02 02:33:14;;;;;;;44.40;25.42;;;1.20;99.90;;;;;;4992205;28;19991;-72
2023/12/02 02:35:39;;;;;;;45.25;24.55;;;1.20;99.90;;;;;;4993129;28;20034;-73
2023/12/02 02:38:05;;;;;;;41.50;23.50;;;1.20;99.90;;;;;;4994064;28;20061;-72
2023/12/02 02:40:30;;;;;;;41.17;24.35;;;1.30;99.90;;;;;;4993585;28;20033;-71
2023/12/02 02:42:56;;;;;;;42.00;24.80;;;1.30;99.90;;;;;;4993869;28;20045;-71
2023/12/02 02:45:23;;;;;;;42.65;24.13;;;1.20;99.90;;;;;;4994045;28;20046;-70
2023/12/02 02:47:49;;;;;;;43.97;23.92;;;1.20;99.90;;;;;;4993971;28;20431;-73
2023/12/02 02:50:14;;;;;;;43.90;25.42;;;1.10;99.90;;;;;;4991025;28;20030;-73
2023/12/02 02:52:40;;;;;;;44.75;26.00;;;1.10;99.90;;;;;;4993551;28;20470;-72
2023/12/02 02:55:06;;;;;;;45.10;25.75;;;1.00;99.90;;;;;;4993235;28;20058;-72
2023/12/02 02:57:31;;;;;;;48.60;26.23;;;1.00;99.90;;;;;;4994113;28;20030;-70
2023/12/02 02:59:57;;;;;;;45.83;25.08;;;0.90;99.90;;;;;;4991347;28;20037;-73
2023/12/02 03:02:23;;;;;;;48.53;27.30;;;0.80;99.90;;;;;;4993753;28;20064;-72
2023/12/02 03:04:49;;;;;;;46.65;27.05;;;0.70;99.90;;;;;;4992677;28;20503;-71
2023/12/02 03:07:14;;;;;;;48.45;27.52;;;0.70;99.90;;;;;;4992215;28;20039;-72
2023/12/02 03:09:40;;;;;;;51.78;28.42;;;0.60;99.90;;;;;;4993245;28;20028;-72
2023/12/02 03:12:06;;;;;;;51.30;27.30;;;0.60;99.90;;;;;;4993131;28;20049;-70
2023/12/02 03:14:31;;;;;;;55.97;28.52;;;0.60;99.90;;;;;;4991802;28;20025;-73
2023/12/02 03:16:57;;;;;;;49.03;26.90;;;0.60;99.90;;;;;;4991864;28;20031;-72
2023/12/02 03:19:23;;;;;;;49.10;27.58;;;0.50;99.90;;;;;;4993096;28;20029;-70
2023/12/02 03:21:49;;;;;;;49.97;27.13;;;0.50;99.90;;;;;;4993435;28;20026;-71
2023/12/02 03:24:14;;;;;;;53.25;28.02;;;0.50;99.90;;;;;;4992142;28;20370;-70
2023/12/02 03:26:41;;;;;;;51.25;27.88;;;0.40;99.90;;;;;;4993404;28;20794;-69
2023/12/02 03:29:07;;;;;;;50.13;26.60;;;0.40;99.90;;;;;;4991083;28;20030;-69
2023/12/02 03:31:33;;;;;;;51.80;28.50;;;0.30;99.90;;;;;;4989862;28;20027;-71
2023/12/02 03:33:59;;;;;;;53.00;28.40;;;0.30;99.90;;;;;;4992428;28;20034;-73
2023/12/02 03:36:24;;;;;;;49.70;27.83;;;0.30;99.90;;;;;;4992784;28;20073;-72
2023/12/02 03:38:50;;;;;;;50.15;26.73;;;0.20;99.90;;;;;;4992614;28;20022;-71
2023/12/02 03:41:15;;;;;;;50.03;27.13;;;0.20;99.90;;;;;;4992912;28;20529;-72
2023/12/02 03:43:41;;;;;;;50.17;28.17;;;0.10;99.90;;;;;;4991600;28;20031;-70
2023/12/02 03:46:07;;;;;;;50.25;28.55;;;0.10;99.90;;;;;;4994883;28;20474;-69
2023/12/02 03:48:32;;;;;;;55.05;30.48;;;0.00;99.90;;;;;;4991266;28;20035;-71
2023/12/02 03:50:58;;;;;;;49.20;28.30;;;0.00;99.90;;;;;;4989440;28;20045;-70
2023/12/02 03:53:25;;;;;;;54.28;29.80;;;0.00;99.90;;;;;;4987533;28;20055;-70
2023/12/02 03:55:53;;;;;;;52.28;27.60;;;0.00;99.90;;;;;;4992688;28;20058;-71
2023/12/02 03:58:19;;;;;;;55.83;30.70;;;-0.10;99.90;;;;;;4992058;28;20422;-71
2023/12/02 04:00:44;;;;;;;59.13;31.67;;;-0.10;99.90;;;;;;4992984;28;20030;-72
2023/12/02 04:03:13;;;;;;;53.28;30.23;;;-0.10;99.90;;;;;;4992889;28;20144;-75
2023/12/02 04:05:39;;;;;;;51.75;29.23;;;-0.10;99.90;;;;;;4991285;28;20439;-71
2023/12/02 04:08:05;;;;;;;69.03;32.20;;;-0.10;99.90;;;;;;4990331;28;20039;-72
2023/12/02 04:10:30;;;;;;;53.25;29.98;;;-0.20;99.90;;;;;;4992097;28;20049;-70
2023/12/02 04:12:56;;;;;;;53.22;28.92;;;-0.20;99.90;;;;;;4992746;28;20030;-71
2023/12/02 04:15:21;;;;;;;55.65;29.77;;;-0.20;99.90;;;;;;4991562;28;20101;-71
2023/12/02 04:17:47;;;;;;;55.88;29.92;;;-0.20;99.90;;;;;;4992811;28;20355;-71
2023/12/02 04:20:15;;;;;;;56.38;30.52;;;-0.30;99.90;;;;;;4992861;28;20114;-72
2023/12/02 04:22:41;;;;;;;51.97;29.00;;;-0.30;99.90;;;;;;4991793;28;20034;-72
2023/12/02 04:25:07;;;;;;;54.60;29.70;;;-0.30;99.90;;;;;;4991159;28;20034;-70
2023/12/02 04:27:32;;;;;;;57.67;30.83;;;-0.30;99.90;;;;;;4993241;28;20022;-71
2023/12/02 04:29:58;;;;;;;53.78;29.92;;;-0.30;99.90;;;;;;4992995;28;20389;-71
2023/12/02 04:32:24;;;;;;;58.40;30.58;;;-0.30;99.90;;;;;;4996033;28;20029;-71
2023/12/02 04:34:50;;;;;;;58.33;30.85;;;-0.30;99.90;;;;;;4995986;28;20041;-70
2023/12/02 04:37:17;;;;;;;54.90;29.77;;;-0.30;99.90;;;;;;4994959;28;20118;-70
2023/12/02 04:39:42;;;;;;;59.53;31.80;;;-0.30;99.90;;;;;;4995927;28;20026;-69
2023/12/02 04:42:08;;;;;;;62.00;30.80;;;-0.30;99.90;;;;;;4995084;28;20030;-72
2023/12/02 04:44:34;;;;;;;59.22;31.00;;;-0.40;99.90;;;;;;4996172;28;20073;-70
2023/12/02 04:47:00;;;;;;;59.20;31.40;;;-0.40;99.90;;;;;;4996178;28;20117;-71
2023/12/02 04:49:26;;;;;;;57.25;30.05;;;-0.40;99.90;;;;;;4996168;28;20064;-71
2023/12/02 04:51:52;;;;;;;58.97;33.03;;;-0.40;99.90;;;;;;4994070;28;20062;-71
2023/12/02 04:54:19;;;;;;;55.13;29.83;;;-0.40;99.90;;;;;;4994825;28;20029;-71
2023/12/02 04:56:45;;;;;;;59.78;31.75;;;-0.40;99.90;;;;;;4994230;28;20090;-72
2023/12/02 04:59:11;;;;;;;56.47;30.60;;;-0.50;99.90;;;;;;4994489;28;20121;-69
2023/12/02 05:01:36;;;;;;;60.05;31.88;;;-0.50;99.90;;;;;;4995562;28;20109;-71
2023/12/02 05:04:02;;;;;;;60.13;31.42;;;-0.50;99.90;;;;;;4995637;28;20097;-72
2023/12/02 05:06:27;;;;;;;58.35;30.42;;;-0.60;99.90;;;;;;4995307;28;20022;-71
2023/12/02 05:08:53;;;;;;;55.42;30.13;;;-0.60;99.90;;;;;;4994499;28;20502;-69
2023/12/02 05:11:22;;;;;;;55.70;30.42;;;-0.60;99.90;;;;;;4995999;28;20034;-69
2023/12/02 05:13:48;;;;;;;55.25;30.42;;;-0.70;99.90;;;;;;4995219;28;20136;-71
2023/12/02 05:16:14;;;;;;;56.60;29.55;;;-0.70;99.90;;;;;;4995721;28;20035;-70
2023/12/02 05:18:43;;;;;;;57.47;29.75;;;-0.70;99.90;;;;;;4995556;28;20105;-70
2023/12/02 05:21:09;;;;;;;54.83;30.95;;;-0.70;99.90;;;;;;4994469;28;20030;-70
2023/12/02 05:23:35;;;;;;;55.53;30.50;;;-0.70;99.90;;;;;;4995411;28;20038;-70
2023/12/02 05:26:01;;;;;;;53.83;30.95;;;-0.60;99.90;;;;;;4995033;28;20092;-71
2023/12/02 05:28:27;;;;;;;63.08;32.10;;;-0.60;99.90;;;;;;4995695;28;20026;-69
2023/12/02 05:30:53;;;;;;;55.92;30.48;;;-0.60;99.90;;;;;;4994067;28;20029;-71
2023/12/02 05:33:22;;;;;;;53.85;29.08;;;-0.70;99.90;;;;;;4995741;28;20470;-71
2023/12/02 05:35:48;;;;;;;62.15;30.98;;;-0.60;99.90;;;;;;4995200;28;20034;-69
2023/12/02 05:38:14;;;;;;;55.67;29.98;;;-0.60;99.90;;;;;;4995165;28;20058;-70
2023/12/02 05:40:39;;;;;;;58.20;30.52;;;-0.70;99.90;;;;;;4994073;28;20062;-70
2023/12/02 05:43:05;;;;;;;56.55;29.58;;;-0.70;99.90;;;;;;4995169;28;20692;-70
2023/12/02 05:45:30;;;;;;;59.28;31.27;;;-0.70;99.90;;;;;;4993970;28;20425;-71
2023/12/02 05:47:56;;;;;;;59.72;30.63;;;-0.70;99.90;;;;;;4994902;28;20034;-69
2023/12/02 05:50:21;;;;;;;54.58;30.33;;;-0.70;99.90;;;;;;4995053;28;20022;-70
2023/12/02 05:52:47;;;;;;;59.17;31.33;;;-0.70;99.90;;;;;;4993653;28;20057;-70
2023/12/02 05:55:13;;;;;;;54.15;29.27;;;-0.70;99.90;;;;;;4994723;28;20057;-69
2023/12/02 05:57:38;;;;;;;53.45;29.20;;;-0.70;99.90;;;;;;4995424;28;20041;-70
2023/12/02 06:00:05;;;;;;;53.40;30.27;;;-0.70;99.90;;;;;;4994930;28;20458;-71
2023/12/02 06:02:31;;;;;;;55.85;31.02;;;-0.70;99.90;;;;;;4994602;28;20461;-68
2023/12/02 06:04:56;;;;;;;52.85;28.58;;;-0.70;99.90;;;;;;4993790;28;20113;-70
2023/12/02 06:07:22;;;;;;;53.33;29.13;;;-0.60;99.90;;;;;;4995048;28;20077;-71
2023/12/02 06:09:47;;;;;;;57.28;30.42;;;-0.60;99.90;;;;;;4993722;28;20030;-69
2023/12/02 06:12:13;;;;;;;54.05;30.33;;;-0.60;99.90;;;;;;4994830;28;20038;-71
2023/12/02 06:14:39;;;;;;;57.22;29.92;;;-0.60;99.90;;;;;;4994835;28;20085;-71
2023/12/02 06:17:05;;;;;;;54.70;29.75;;;-0.70;99.90;;;;;;4994670;28;20073;-70
2023/12/02 06:19:30;;;;;;;56.17;29.95;;;-0.70;99.90;;;;;;4994615;28;20057;-70
2023/12/02 06:21:57;;;;;;;51.90;28.70;;;-0.70;99.90;;;;;;4993749;28;20038;-68
2023/12/02 06:24:22;;;;;;;54.33;28.73;;;-0.70;99.90;;;;;;4994608;28;20462;-70
2023/12/02 06:26:48;;;;;;;59.15;30.45;;;-0.80;99.90;;;;;;4993263;28;20084;-68
2023/12/02 06:29:13;;;;;;;54.40;29.67;;;-0.80;99.90;;;;;;4994381;28;20033;-69
2023/12/02 06:31:39;;;;;;;56.95;30.27;;;-0.80;99.90;;;;;;4993603;28;20033;-68
2023/12/02 06:34:04;;;;;;;61.15;30.77;;;-0.80;99.90;;;;;;4994292;28;20033;-69
2023/12/02 06:36:30;;;;;;;58.45;29.67;;;-0.80;99.90;;;;;;4992403;28;20034;-68
2023/12/02 06:38:56;;;;;;;52.42;29.98;;;-0.90;99.90;;;;;;4992140;28;20050;-69
2023/12/02 06:41:22;;;;;;;56.35;30.05;;;-0.80;99.90;;;;;;4993591;28;20068;-68
2023/12/02 06:43:48;;;;;;;58.45;30.77;;;-0.80;99.90;;;;;;4992753;28;20035;-70
2023/12/02 06:46:21;;;;;;;56.70;30.35;;;-0.80;99.90;;;;;;4993318;28;20545;-70
2023/12/02 06:48:47;;;;;;;59.65;31.98;;;-0.80;99.90;;;;;;4994126;28;20524;-70
2023/12/02 06:51:13;;;;;;;54.47;30.40;;;-0.80;99.90;;;;;;4994208;28;20060;-68
2023/12/02 06:53:38;;;;;;;57.15;30.88;;;-0.70;99.90;;;;;;4990293;28;20482;-70
2023/12/02 06:56:05;;;;;;;61.15;32.10;;;-0.70;99.90;;;;;;4993881;28;20478;-69
2023/12/02 06:58:31;;;;;;;55.10;30.27;;;-0.70;99.90;;;;;;4993974;28;20049;-69
2023/12/02 07:00:56;;;;;;;58.50;31.88;;;-0.70;99.90;;;;;;4993760;28;20715;-69
2023/12/02 07:03:22;;;;;;;58.50;32.45;;;-0.70;99.90;;;;;;4993831;28;20446;-69
2023/12/02 07:05:47;;;;;;;55.75;31.30;;;-0.70;99.90;;;;;;4993690;28;20552;-68
2023/12/02 07:08:13;;;;;;;55.13;30.38;;;-0.70;99.90;;;;;;4992493;28;20025;-68
2023/12/02 07:10:38;;;;;;;56.35;31.80;;;-0.70;99.90;;;;;;4991793;28;20381;-70
2023/12/02 07:13:04;;;;;;;57.88;31.65;;;-0.60;99.90;;;;;;4993596;28;20521;-69
2023/12/02 07:15:37;;;;;;;59.50;31.60;;;-0.70;99.90;;;;;;4991586;28;20026;-71
2023/12/02 07:18:03;;;;;;;60.58;32.17;;;-0.60;99.90;;;;;;4991884;28;20117;-69
2023/12/02 07:20:28;;;;;;;65.90;34.40;;;-0.60;99.90;;;;;;4993021;28;20058;-70
2023/12/02 07:22:54;;;;;;;60.53;32.80;;;-0.50;99.90;;;;;;4993728;28;20374;-71
2023/12/02 07:25:19;;;;;;;65.00;34.03;;;-0.50;99.90;;;;;;4991104;28;20381;-70
2023/12/02 07:27:45;;;;;;;67.03;30.75;;;-0.50;99.90;;;;;;4993447;28;20098;-69
2023/12/02 07:30:11;;;;;;;59.90;31.63;;;-0.40;99.90;;;;;;4992944;28;20026;-68
2023/12/02 07:32:37;;;;;;;58.53;31.33;;;-0.40;99.90;;;;;;4993183;28;20038;-69
2023/12/02 07:35:04;;;;;;;65.50;34.63;;;-0.30;99.90;;;;;;4992075;28;20092;-69
2023/12/02 07:37:29;;;;;;;58.53;31.02;;;-0.30;99.90;;;;;;4992983;28;20096;-67
2023/12/02 07:39:55;;;;;;;57.78;32.03;;;-0.20;99.90;;;;;;4992731;28;20014;-68
2023/12/02 07:42:21;;;;;;;57.53;31.77;;;-0.20;99.90;;;;;;4990718;28;20025;-67
2023/12/02 07:44:46;;;;;;;56.63;30.67;;;-0.10;99.90;;;;;;4991916;28;20386;-69
2023/12/02 07:47:12;;;;;;;53.83;30.20;;;0.00;99.90;;;;;;4990084;28;20041;-69
2023/12/02 07:49:38;;;;;;;57.38;32.08;;;0.00;99.90;;;;;;4991517;28;20041;-69
2023/12/02 07:52:04;;;;;;;78.80;32.45;;;0.10;99.90;;;;;;4993132;28;20066;-68
2023/12/02 07:54:31;;;;;;;56.50;29.85;;;0.10;99.90;;;;;;4991718;28;20030;-68
2023/12/02 07:56:57;;;;;;;56.78;29.35;;;0.10;99.90;;;;;;4992123;28;20038;-70
2023/12/02 07:59:22;;;;;;;54.58;30.35;;;0.10;99.90;;;;;;4992860;28;20064;-69
2023/12/02 08:01:50;;;;;;;51.85;28.58;;;0.10;99.90;;;;;;4998972;28;20061;-69
2023/12/02 08:04:16;;;;;;;142.13;43.22;;;0.20;99.90;;;;;;4973430;28;20054;-68
2023/12/02 08:06:41;;;;;;;55.28;29.58;;;0.30;99.90;;;;;;4985879;28;20113;-69
2023/12/02 08:09:07;;;;;;;56.42;30.13;;;0.30;99.90;;;;;;4996420;28;20741;-70
2023/12/02 08:11:32;;;;;;;51.45;29.58;;;0.30;99.90;;;;;;4993051;28;20100;-68
2023/12/02 08:13:58;;;;;;;53.60;28.63;;;0.40;99.90;;;;;;4995772;28;20066;-69
2023/12/02 08:16:23;;;;;;;52.72;29.52;;;0.50;99.90;;;;;;4996753;28;20042;-69
2023/12/02 08:18:49;;;;;;;51.30;28.02;;;0.50;99.90;;;;;;4995142;28;20033;-67
2023/12/02 08:21:15;;;;;;;53.35;28.80;;;0.60;99.90;;;;;;4996097;28;20030;-68
2023/12/02 08:23:40;;;;;;;54.13;29.70;;;0.70;99.90;;;;;;4998741;28;20102;-70
2023/12/02 08:26:06;;;;;;;51.25;29.55;;;0.80;99.90;;;;;;5005049;28;20026;-68
2023/12/02 08:28:32;;;;;;;53.95;29.67;;;0.90;99.90;;;;;;4991540;28;20023;-70
2023/12/02 08:30:57;;;;;;;51.05;28.45;;;0.90;99.90;;;;;;4992901;28;20042;-69
2023/12/02 08:33:38;;;;;;;50.17;28.58;;;0.90;99.90;;;;;;4994838;28;20082;-68
2023/12/02 08:36:04;;;;;;;52.58;30.02;;;1.00;99.90;;;;;;4990956;28;20464;-68
2023/12/02 08:38:30;;;;;;;50.40;28.13;;;1.10;99.90;;;;;;4994645;28;20485;-68
2023/12/02 08:40:55;;;;;;;52.90;29.10;;;1.10;99.90;;;;;;4992496;28;20031;-68
2023/12/02 08:43:21;;;;;;;50.33;28.05;;;1.20;99.90;;;;;;4991438;28;20036;-68
2023/12/02 08:45:46;;;;;;;51.63;28.00;;;1.20;99.90;;;;;;4991947;28;20040;-69
2023/12/02 08:48:12;;;;;;;46.65;27.92;;;1.20;99.90;;;;;;4995175;28;20117;-69
2023/12/02 08:50:38;;;;;;;50.88;28.92;;;1.30;99.90;;;;;;4994481;28;20149;-69
2023/12/02 08:53:03;;;;;;;49.30;27.50;;;1.40;99.90;;;;;;4992095;28;20034;-69
2023/12/02 08:55:29;;;;;;;51.20;29.08;;;1.40;99.90;;;;;;4991028;28;20371;-68
2023/12/02 08:57:55;;;;;;;51.70;28.90;;;1.30;99.90;;;;;;4991931;28;20045;-70
2023/12/02 09:00:20;;;;;;;49.15;28.05;;;1.30;99.90;;;;;;4994610;28;20061;-70
2023/12/02 09:02:46;;;;;;;50.65;28.38;;;1.30;99.90;;;;;;4995796;28;20023;-68
2023/12/02 09:05:12;;;;;;;52.58;29.35;;;1.40;99.90;;;;;;4996312;28;20034;-70
2023/12/02 09:07:37;;;;;;;50.72;29.65;;;1.40;99.90;;;;;;4994143;28;20076;-69
2023/12/02 09:10:03;;;;;;;52.70;30.35;;;1.40;99.90;;;;;;4994300;28;20049;-69
2023/12/02 09:12:29;;;;;;;50.70;29.52;;;1.50;99.90;;;;;;4988051;28;20041;-69
2023/12/02 09:15:15;;;;;;;49.50;28.73;;;1.70;99.90;;;;;;4988058;28;20039;-70
2023/12/02 09:17:44;;;;;;;49.30;28.70;;;1.70;99.90;;;;;;4994412;28;20026;-69
2023/12/02 09:20:43;;;;;;;52.83;29.38;;;1.80;99.90;;;;;;4995436;28;20410;-70
2023/12/02 09:23:10;;;;;;;48.45;27.88;;;1.90;99.90;;;;;;4983412;28;20089;-70
2023/12/02 09:25:38;;;;;;;45.33;26.33;;;2.10;99.90;;;;;;4993922;28;20109;-69
2023/12/02 09:28:06;;;;;;;50.22;28.90;;;2.20;99.90;;;;;;4994310;28;20104;-70
2023/12/02 09:30:58;;;;;;;49.53;28.83;;;2.20;99.90;;;;;;4989479;28;20486;-70
2023/12/02 09:33:25;;;;;;;49.15;27.63;;;2.30;99.90;;;;;;4986596;28;20069;-70
2023/12/02 09:35:54;;;;;;;46.92;27.42;;;2.40;99.90;;;;;;5003711;28;20097;-71
2023/12/02 09:38:20;;;;;;;47.58;28.27;;;2.50;99.90;;;;;;4992604;28;20065;-70
2023/12/02 09:41:12;;;;;;;47.17;27.33;;;2.60;99.90;;;;;;4993771;28;20030;-71
2023/12/02 09:44:09;;;;;;;49.58;27.98;;;2.70;99.90;;;;;;4994388;28;20490;-70
2023/12/02 09:46:57;;;;;;;45.70;26.15;;;2.80;99.90;;;;;;4977313;28;20030;-72
2023/12/02 09:49:37;;;;;;;45.75;26.63;;;3.10;99.90;;;;;;4989761;28;20048;-71
2023/12/02 09:52:20;;;;;;;43.08;26.10;;;3.20;99.90;;;;;;4992220;28;20077;-72
2023/12/02 09:55:15;;;;;;;44.15;26.25;;;3.40;99.90;;;;;;4992953;28;20109;-71
2023/12/02 09:58:22;;;;;;;46.08;25.77;;;3.40;99.90;;;;;;4994166;28;20052;-72
2023/12/02 10:00:50;;;;;;;42.92;25.42;;;3.60;99.90;;;;;;4952896;28;20424;-72
2023/12/02 10:03:45;;;;;;;45.42;27.80;;;3.90;99.90;;;;;;4953875;28;20050;-71
2023/12/02 10:06:31;;;;;;;42.60;25.15;;;4.10;99.90;;;;;;4973061;28;20038;-72
2023/12/02 10:09:29;;;;;;;42.00;25.17;;;4.20;99.90;;;;;;4994649;28;20459;-72
2023/12/02 10:12:14;;;;;;;41.75;25.00;;;4.30;99.90;;;;;;4987125;28;20047;-72
2023/12/02 10:14:41;;;;;;;43.88;25.33;;;4.30;99.90;;;;;;4994390;28;20037;-73
2023/12/02 10:17:10;;;;;;;46.83;26.60;;;4.20;99.90;;;;;;4991833;28;20034;-72
2023/12/02 10:19:54;;;;;;;49.28;28.77;;;4.30;99.90;;;;;;4993091;28;20034;-73
2023/12/02 10:22:23;;;;;;;42.85;25.90;;;4.40;99.90;;;;;;4993235;28;20042;-73
2023/12/02 10:25:05;;;;;;;44.53;27.30;;;4.60;99.90;;;;;;4991660;28;20027;-73
2023/12/02 10:27:36;;;;;;;40.95;24.88;;;4.70;99.90;;;;;;4989466;28;20113;-73
2023/12/02 10:30:17;;;;;;;44.65;25.65;;;4.90;99.90;;;;;;4982548;28;20213;-73
2023/12/02 10:33:05;;;;;;;41.40;25.23;;;4.90;99.90;;;;;;4989581;28;20426;-73
2023/12/02 10:35:54;;;;;;;42.40;26.15;;;5.00;99.90;;;;;;4992160;28;20088;-73
2023/12/02 10:38:45;;;;;;;40.50;24.35;;;4.90;99.90;;;;;;4993973;28;20019;-74
2023/12/02 10:41:35;;;;;;;43.38;25.63;;;5.00;99.90;;;;;;4990095;28;20097;-74
2023/12/02 10:44:06;;;;;;;42.88;26.17;;;4.90;99.90;;;;;;4991557;28;20052;-74
2023/12/02 10:46:32;;;;;;;44.15;26.70;;;5.00;99.90;;;;;;4990710;28;20474;-74
2023/12/02 10:49:00;;;;;;;45.67;27.83;;;5.00;99.90;;;;;;4992103;28;20030;-75
2023/12/02 10:51:27;;;;;;;40.97;25.45;;;5.10;99.90;;;;;;5008035;28;20034;-75
2023/12/02 10:53:59;;;;;;;43.75;26.10;;;5.10;99.90;;;;;;4992547;28;20050;-75
2023/12/02 10:56:28;;;;;;;;;;;5.00;99.90;;;;;;4992363;28;20050;-75
2023/12/02 10:58:55;;;;;;;44.35;25.75;;;5.00;99.90;;;;;;4986832;28;19913;-76
2023/12/02 11:01:37;;;;;;;43.97;27.20;;;5.00;99.90;;;;;;4986096;28;20046;-74
2023/12/02 11:04:34;;;;;;;43.78;25.85;;;4.90;99.90;;;;;;4987735;28;20114;-75
2023/12/02 11:07:04;;;;;;;44.92;27.77;;;5.00;99.90;;;;;;4991171;28;20182;-75
2023/12/02 11:09:44;;;;;;;44.35;28.02;;;5.00;99.90;;;;;;4989261;28;20030;-75
2023/12/02 11:12:26;;;;;;;41.75;25.48;;;4.90;99.90;;;;;;4991885;28;20525;-74
2023/12/02 11:14:57;;;;;;;43.50;26.35;;;4.90;99.90;;;;;;4988584;28;20113;-75
2023/12/02 11:17:41;;;;;;;48.87;29.30;;;4.90;99.90;;;;;;4982761;28;20073;-76
2023/12/02 11:20:49;;;;;;;44.13;26.08;;;4.90;99.90;;;;;;4990049;28;20759;-73
2023/12/02 11:23:33;;;;;;;47.92;27.60;;;4.80;99.90;;;;;;4929180;29;20107;-76
2023/12/02 11:26:14;;;;;;;46.55;27.23;;;4.80;99.90;;;;;;4988018;28;20046;-73
2023/12/02 11:28:55;;;;;;;42.90;26.33;;;4.80;99.90;;;;;;4988736;28;20072;-76
2023/12/02 11:31:43;;;;;;;45.17;26.90;;;5.00;99.90;;;;;;4992722;28;20133;-76
2023/12/02 11:34:36;;;;;;;43.75;26.35;;;5.10;99.90;;;;;;4988384;28;20029;-72
2023/12/02 11:37:43;;;;;;;44.65;27.95;;;5.30;99.90;;;;;;4987785;28;20053;-77
2023/12/02 11:40:22;;;;;;;41.50;25.73;;;5.40;99.90;;;;;;4992558;28;20093;-73
2023/12/02 11:42:56;;;;;;;41.10;25.33;;;5.60;99.90;;;;;;4991097;28;20033;-74
2023/12/02 11:45:31;;;;;;;44.17;25.98;;;5.70;99.90;;;;;;4991909;28;20026;-73
2023/12/02 11:48:36;;;;;;;42.22;25.90;;;5.70;99.90;;;;;;4992381;28;20467;-73
2023/12/02 11:51:28;;;;;;;46.00;28.00;;;5.70;99.90;;;;;;4989869;28;20038;-72
2023/12/02 11:54:02;;;;;;;42.38;26.00;;;5.70;99.90;;;;;;4991475;28;20092;-74
2023/12/02 11:56:27;;;;;;;40.55;23.85;;;5.60;99.90;;;;;;4989196;28;20387;-74
2023/12/02 11:59:13;;;;;;;40.33;25.45;;;5.60;99.90;;;;;;4991669;28;20022;-73
2023/12/02 12:02:04;;;;;;;41.67;25.05;;;5.50;99.90;;;;;;4992643;28;20129;-75
2023/12/02 12:04:55;;;;;;;37.63;22.23;;;5.40;99.90;;;;;;4993638;28;20070;-73
2023/12/02 12:07:46;;;;;;;39.77;22.93;;;5.30;99.90;;;;;;4987733;28;20073;-72
2023/12/02 12:10:27;;;;;;;45.72;26.83;;;5.10;99.90;;;;;;4992203;28;20318;-71
2023/12/02 12:12:56;;;;;;;43.10;25.77;;;4.80;99.90;;;;;;4995933;28;20038;-74
2023/12/02 12:15:22;;;;;;;46.80;26.48;;;4.50;99.90;;;;;;5000369;28;20030;-74
2023/12/02 12:17:49;;;;;;;48.13;27.75;;;4.30;99.90;;;;;;4990218;28;20042;-73
2023/12/02 12:20:20;;;;;;;43.70;25.63;;;4.50;99.90;;;;;;4990138;28;20034;-72
2023/12/02 12:22:45;;;;;;;41.72;25.15;;;4.80;99.90;;;;;;4991255;28;20030;-72
2023/12/02 12:25:12;;;;;;;43.05;24.73;;;5.10;99.90;;;;;;4991234;28;20027;-72
2023/12/02 12:27:38;;;;;;;44.30;24.88;;;5.20;99.90;;;;;;4992529;28;20049;-73
2023/12/02 12:30:05;;;;;;;43.65;25.67;;;5.40;99.90;;;;;;4989442;28;20035;-72
2023/12/02 12:32:31;;;;;;;43.08;25.45;;;5.70;99.90;;;;;;4992387;28;20177;-73
2023/12/02 12:34:56;;;;;;;42.47;25.90;;;6.10;99.90;;;;;;4992082;28;20423;-72
2023/12/02 12:37:23;;;;;;;46.40;27.85;;;6.50;99.90;;;;;;4992077;28;20133;-73
2023/12/02 12:39:49;;;;;;;43.20;26.42;;;6.90;99.90;;;;;;4990336;28;20034;-73
2023/12/02 12:42:18;;;;;;;41.28;24.92;;;7.30;99.90;;;;;;4991878;28;20030;-72
2023/12/02 12:44:44;;;;;;;42.22;25.38;;;7.70;99.90;;;;;;4990907;28;20080;-72